sensor_id;sensor_type;location;lat;lon;timestamp;temperature;humidity
31837;DHT22;18401;49.344;6.240;2023-12-29T00:01:30;8.30;99.90
31837;DHT22;18401;49.344;6.240;2023-12-29T00:03:56;8.30;99.90
31837;DHT22;18401;49.344;6.240;2023-12-29T00:06:22;8.20;99.90
31837;DHT22;18401;49.344;6.240;2023-12-29T00:08:47;8.40;91.10
31837;DHT22;18401;49.344;6.240;2023-12-29T00:11:17;8.50;65.90
31837;DHT22;18401;49.344;6.240;2023-12-29T00:13:43;8.50;35.90
31837;DHT22;18401;49.344;6.240;2023-12-29T00:16:09;8.40;39.60
31837;DHT22;18401;49.344;6.240;2023-12-29T00:18:37;8.40;45.80
31837;DHT22;18401;49.344;6.240;2023-12-29T00:21:03;8.40;26.80
31837;DHT22;18401;49.344;6.240;2023-12-29T00:23:28;8.40;1.00
31837;DHT22;18401;49.344;6.240;2023-12-29T00:25:54;8.30;42.70
31837;DHT22;18401;49.344;6.240;2023-12-29T00:28:20;8.30;50.70
31837;DHT22;18401;49.344;6.240;2023-12-29T00:30:46;8.20;17.60
31837;DHT22;18401;49.344;6.240;2023-12-29T00:33:12;8.30;29.90
31837;DHT22;18401;49.344;6.240;2023-12-29T00:35:38;8.40;10.20
31837;DHT22;18401;49.344;6.240;2023-12-29T00:38:06;8.50;1.00
31837;DHT22;18401;49.344;6.240;2023-12-29T00:40:33;8.50;1.00
31837;DHT22;18401;49.344;6.240;2023-12-29T00:43:00;8.60;1.00
31837;DHT22;18401;49.344;6.240;2023-12-29T00:45:26;8.60;1.00
31837;DHT22;18401;49.344;6.240;2023-12-29T00:47:54;8.40;1.00
31837;DHT22;18401;49.344;6.240;2023-12-29T00:50:20;8.20;1.00
31837;DHT22;18401;49.344;6.240;2023-12-29T00:52:46;8.10;7.60
31837;DHT22;18401;49.344;6.240;2023-12-29T00:55:11;8.20;1.00
31837;DHT22;18401;49.344;6.240;2023-12-29T00:57:37;8.30;1.00
31837;DHT22;18401;49.344;6.240;2023-12-29T01:00:03;8.20;1.00
31837;DHT22;18401;49.344;6.240;2023-12-29T01:02:29;8.20;1.00
31837;DHT22;18401;49.344;6.240;2023-12-29T01:04:54;8.40;99.90
31837;DHT22;18401;49.344;6.240;2023-12-29T01:07:20;8.40;99.90
31837;DHT22;18401;49.344;6.240;2023-12-29T01:09:46;8.10;99.90
31837;DHT22;18401;49.344;6.240;2023-12-29T01:12:11;8.10;1.00
31837;DHT22;18401;49.344;6.240;2023-12-29T01:14:37;8.30;99.90
31837;DHT22;18401;49.344;6.240;2023-12-29T01:17:03;8.30;99.90
31837;DHT22;18401;49.344;6.240;2023-12-29T01:19:28;8.10;1.00
31837;DHT22;18401;49.344;6.240;2023-12-29T01:21:54;8.30;99.90
31837;DHT22;18401;49.344;6.240;2023-12-29T01:24:19;8.20;99.90
31837;DHT22;18401;49.344;6.240;2023-12-29T01:26:45;8.10;1.00
31837;DHT22;18401;49.344;6.240;2023-12-29T01:29:11;8.20;99.90
31837;DHT22;18401;49.344;6.240;2023-12-29T01:31:36;8.10;1.00
31837;DHT22;18401;49.344;6.240;2023-12-29T01:34:02;8.20;99.90
31837;DHT22;18401;49.344;6.240;2023-12-29T01:36:28;8.20;1.00
31837;DHT22;18401;49.344;6.240;2023-12-29T01:38:53;8.40;99.90
31837;DHT22;18401;49.344;6.240;2023-12-29T01:41:20;8.50;99.90
31837;DHT22;18401;49.344;6.240;2023-12-29T01:44:15;8.50;99.90
31837;DHT22;18401;49.344;6.240;2023-12-29T01:46:42;8.60;99.90
31837;DHT22;18401;49.344;6.240;2023-12-29T01:49:08;8.70;99.90
31837;DHT22;18401;49.344;6.240;2023-12-29T01:51:33;8.60;99.90
31837;DHT22;18401;49.344;6.240;2023-12-29T01:53:59;8.60;99.90
31837;DHT22;18401;49.344;6.240;2023-12-29T01:56:26;8.60;99.90
31837;DHT22;18401;49.344;6.240;2023-12-29T01:58:52;8.70;99.90
31837;DHT22;18401;49.344;6.240;2023-12-29T02:01:18;8.50;99.90
31837;DHT22;18401;49.344;6.240;2023-12-29T02:03:47;8.70;99.90
31837;DHT22;18401;49.344;6.240;2023-12-29T02:06:13;8.80;99.90
31837;DHT22;18401;49.344;6.240;2023-12-29T02:08:41;8.70;99.90
31837;DHT22;18401;49.344;6.240;2023-12-29T02:11:07;8.80;99.90
31837;DHT22;18401;49.344;6.240;2023-12-29T02:13:33;8.80;99.90
31837;DHT22;18401;49.344;6.240;2023-12-29T02:16:06;8.70;99.90
31837;DHT22;18401;49.344;6.240;2023-12-29T02:18:34;8.80;99.90
31837;DHT22;18401;49.344;6.240;2023-12-29T02:21:02;8.70;99.90
31837;DHT22;18401;49.344;6.240;2023-12-29T02:23:28;8.60;99.90
31837;DHT22;18401;49.344;6.240;2023-12-29T02:25:58;8.40;99.90
31837;DHT22;18401;49.344;6.240;2023-12-29T02:28:27;8.30;99.90
31837;DHT22;18401;49.344;6.240;2023-12-29T02:33:24;8.50;99.90
31837;DHT22;18401;49.344;6.240;2023-12-29T02:35:52;8.40;99.90
31837;DHT22;18401;49.344;6.240;2023-12-29T02:38:20;8.40;99.90
31837;DHT22;18401;49.344;6.240;2023-12-29T02:40:46;8.20;99.90
31837;DHT22;18401;49.344;6.240;2023-12-29T02:43:12;8.40;99.90
31837;DHT22;18401;49.344;6.240;2023-12-29T02:45:37;8.40;99.90
31837;DHT22;18401;49.344;6.240;2023-12-29T02:48:03;8.60;99.90
31837;DHT22;18401;49.344;6.240;2023-12-29T02:50:29;8.60;99.90
31837;DHT22;18401;49.344;6.240;2023-12-29T02:52:54;8.50;99.90
31837;DHT22;18401;49.344;6.240;2023-12-29T02:55:20;8.40;99.90
31837;DHT22;18401;49.344;6.240;2023-12-29T02:57:46;8.60;99.90
31837;DHT22;18401;49.344;6.240;2023-12-29T03:00:12;8.60;99.90
31837;DHT22;18401;49.344;6.240;2023-12-29T03:02:37;8.40;99.90
31837;DHT22;18401;49.344;6.240;2023-12-29T03:05:03;8.80;99.90
31837;DHT22;18401;49.344;6.240;2023-12-29T03:07:29;8.60;99.90
31837;DHT22;18401;49.344;6.240;2023-12-29T03:09:55;8.40;99.90
31837;DHT22;18401;49.344;6.240;2023-12-29T03:12:21;8.50;99.90
31837;DHT22;18401;49.344;6.240;2023-12-29T03:14:46;8.60;99.90
31837;DHT22;18401;49.344;6.240;2023-12-29T03:17:12;8.50;99.90
31837;DHT22;18401;49.344;6.240;2023-12-29T03:19:38;8.60;99.90
31837;DHT22;18401;49.344;6.240;2023-12-29T03:22:04;8.50;99.90
31837;DHT22;18401;49.344;6.240;2023-12-29T03:24:29;8.50;99.90
31837;DHT22;18401;49.344;6.240;2023-12-29T03:26:55;8.70;99.90
31837;DHT22;18401;49.344;6.240;2023-12-29T03:29:21;8.70;99.90
31837;DHT22;18401;49.344;6.240;2023-12-29T03:31:47;8.70;99.90
31837;DHT22;18401;49.344;6.240;2023-12-29T03:34:12;8.70;99.90
31837;DHT22;18401;49.344;6.240;2023-12-29T03:36:38;8.80;99.90
31837;DHT22;18401;49.344;6.240;2023-12-29T03:39:04;8.90;99.90
31837;DHT22;18401;49.344;6.240;2023-12-29T03:41:30;8.80;99.90
31837;DHT22;18401;49.344;6.240;2023-12-29T03:43:55;8.80;99.90
31837;DHT22;18401;49.344;6.240;2023-12-29T03:46:24;9.00;99.90
31837;DHT22;18401;49.344;6.240;2023-12-29T03:48:51;9.00;99.90
31837;DHT22;18401;49.344;6.240;2023-12-29T03:51:17;8.90;99.90
31837;DHT22;18401;49.344;6.240;2023-12-29T03:53:43;8.90;99.90
31837;DHT22;18401;49.344;6.240;2023-12-29T03:56:15;8.90;99.90
31837;DHT22;18401;49.344;6.240;2023-12-29T03:58:44;9.00;99.90
31837;DHT22;18401;49.344;6.240;2023-12-29T04:01:14;9.00;99.90
31837;DHT22;18401;49.344;6.240;2023-12-29T04:03:40;9.00;99.90
31837;DHT22;18401;49.344;6.240;2023-12-29T04:06:07;9.00;99.90
31837;DHT22;18401;49.344;6.240;2023-12-29T04:08:36;9.00;99.90
31837;DHT22;18401;49.344;6.240;2023-12-29T04:11:03;9.10;99.90
31837;DHT22;18401;49.344;6.240;2023-12-29T04:13:29;9.10;99.90
31837;DHT22;18401;49.344;6.240;2023-12-29T04:15:55;9.10;99.90
31837;DHT22;18401;49.344;6.240;2023-12-29T04:18:22;9.10;99.90
31837;DHT22;18401;49.344;6.240;2023-12-29T04:20:48;9.10;99.90
31837;DHT22;18401;49.344;6.240;2023-12-29T04:23:14;9.10;99.90
31837;DHT22;18401;49.344;6.240;2023-12-29T04:25:39;9.10;99.90
31837;DHT22;18401;49.344;6.240;2023-12-29T04:28:06;9.10;99.90
31837;DHT22;18401;49.344;6.240;2023-12-29T04:30:31;9.20;99.90
31837;DHT22;18401;49.344;6.240;2023-12-29T04:32:57;9.30;99.90
31837;DHT22;18401;49.344;6.240;2023-12-29T04:35:23;9.20;99.90
31837;DHT22;18401;49.344;6.240;2023-12-29T04:37:49;9.30;99.90
31837;DHT22;18401;49.344;6.240;2023-12-29T04:40:17;9.30;99.90
31837;DHT22;18401;49.344;6.240;2023-12-29T04:42:43;9.30;99.90
31837;DHT22;18401;49.344;6.240;2023-12-29T04:45:10;9.30;99.90
31837;DHT22;18401;49.344;6.240;2023-12-29T04:47:36;9.40;99.90
31837;DHT22;18401;49.344;6.240;2023-12-29T04:50:01;9.40;99.90
31837;DHT22;18401;49.344;6.240;2023-12-29T04:52:27;9.20;99.90
31837;DHT22;18401;49.344;6.240;2023-12-29T04:54:53;9.20;99.90
31837;DHT22;18401;49.344;6.240;2023-12-29T04:57:19;9.40;99.90
31837;DHT22;18401;49.344;6.240;2023-12-29T04:59:45;9.40;99.90
31837;DHT22;18401;49.344;6.240;2023-12-29T05:02:10;9.40;99.90
31837;DHT22;18401;49.344;6.240;2023-12-29T05:04:36;9.40;99.90
31837;DHT22;18401;49.344;6.240;2023-12-29T05:07:05;9.40;99.90
31837;DHT22;18401;49.344;6.240;2023-12-29T05:09:30;9.40;99.90
31837;DHT22;18401;49.344;6.240;2023-12-29T05:11:56;9.30;99.90
31837;DHT22;18401;49.344;6.240;2023-12-29T05:14:22;9.30;99.90
31837;DHT22;18401;49.344;6.240;2023-12-29T05:16:47;9.30;99.90
31837;DHT22;18401;49.344;6.240;2023-12-29T05:19:13;9.40;99.90
31837;DHT22;18401;49.344;6.240;2023-12-29T05:21:38;9.40;99.90
31837;DHT22;18401;49.344;6.240;2023-12-29T05:24:04;9.40;99.90
31837;DHT22;18401;49.344;6.240;2023-12-29T05:26:31;9.30;99.90
31837;DHT22;18401;49.344;6.240;2023-12-29T05:28:57;9.30;99.90
31837;DHT22;18401;49.344;6.240;2023-12-29T05:31:22;9.40;99.90
31837;DHT22;18401;49.344;6.240;2023-12-29T05:33:48;9.30;99.90
31837;DHT22;18401;49.344;6.240;2023-12-29T05:36:14;9.40;99.90
31837;DHT22;18401;49.344;6.240;2023-12-29T05:38:40;9.40;99.90
31837;DHT22;18401;49.344;6.240;2023-12-29T05:41:06;9.30;99.90
31837;DHT22;18401;49.344;6.240;2023-12-29T05:43:32;9.40;99.90
31837;DHT22;18401;49.344;6.240;2023-12-29T05:45:59;9.30;99.90
31837;DHT22;18401;49.344;6.240;2023-12-29T05:48:25;9.40;99.90
31837;DHT22;18401;49.344;6.240;2023-12-29T05:50:51;9.20;99.90
31837;DHT22;18401;49.344;6.240;2023-12-29T05:53:16;9.20;99.90
31837;DHT22;18401;49.344;6.240;2023-12-29T05:55:43;9.20;99.90
31837;DHT22;18401;49.344;6.240;2023-12-29T05:58:09;9.30;99.90
31837;DHT22;18401;49.344;6.240;2023-12-29T06:00:36;9.30;99.90
31837;DHT22;18401;49.344;6.240;2023-12-29T06:03:02;9.30;99.90
31837;DHT22;18401;49.344;6.240;2023-12-29T06:05:30;9.30;99.90
31837;DHT22;18401;49.344;6.240;2023-12-29T06:07:56;9.30;99.90
31837;DHT22;18401;49.344;6.240;2023-12-29T06:10:21;9.40;99.90
31837;DHT22;18401;49.344;6.240;2023-12-29T06:12:47;9.30;99.90
31837;DHT22;18401;49.344;6.240;2023-12-29T06:15:13;9.40;99.90
31837;DHT22;18401;49.344;6.240;2023-12-29T06:17:40;9.40;99.90
31837;DHT22;18401;49.344;6.240;2023-12-29T06:20:06;9.40;99.90
31837;DHT22;18401;49.344;6.240;2023-12-29T06:22:32;9.30;99.90
31837;DHT22;18401;49.344;6.240;2023-12-29T06:24:58;9.40;99.90
31837;DHT22;18401;49.344;6.240;2023-12-29T06:27:25;9.40;99.90
31837;DHT22;18401;49.344;6.240;2023-12-29T06:29:51;9.30;99.90
31837;DHT22;18401;49.344;6.240;2023-12-29T06:32:17;9.30;99.90
31837;DHT22;18401;49.344;6.240;2023-12-29T06:34:42;9.30;99.90
31837;DHT22;18401;49.344;6.240;2023-12-29T06:37:08;9.20;99.90
31837;DHT22;18401;49.344;6.240;2023-12-29T06:39:35;9.30;99.90
31837;DHT22;18401;49.344;6.240;2023-12-29T06:42:01;9.20;99.90
31837;DHT22;18401;49.344;6.240;2023-12-29T06:44:27;9.30;99.90
31837;DHT22;18401;49.344;6.240;2023-12-29T06:46:52;9.30;99.90
31837;DHT22;18401;49.344;6.240;2023-12-29T06:49:18;9.40;99.90
31837;DHT22;18401;49.344;6.240;2023-12-29T06:51:44;9.40;99.90
31837;DHT22;18401;49.344;6.240;2023-12-29T06:54:11;9.30;99.90
31837;DHT22;18401;49.344;6.240;2023-12-29T06:56:36;9.30;99.90
31837;DHT22;18401;49.344;6.240;2023-12-29T06:59:02;9.30;99.90
31837;DHT22;18401;49.344;6.240;2023-12-29T07:01:28;9.30;99.90
31837;DHT22;18401;49.344;6.240;2023-12-29T07:03:53;9.30;99.90
31837;DHT22;18401;49.344;6.240;2023-12-29T07:06:19;9.30;99.90
31837;DHT22;18401;49.344;6.240;2023-12-29T07:08:45;9.40;99.90
31837;DHT22;18401;49.344;6.240;2023-12-29T07:11:12;9.50;99.90
31837;DHT22;18401;49.344;6.240;2023-12-29T07:13:37;9.40;99.90
31837;DHT22;18401;49.344;6.240;2023-12-29T07:16:04;9.40;99.90
31837;DHT22;18401;49.344;6.240;2023-12-29T07:18:29;9.30;99.90
31837;DHT22;18401;49.344;6.240;2023-12-29T07:20:55;9.40;99.90
31837;DHT22;18401;49.344;6.240;2023-12-29T07:23:21;9.40;99.90
31837;DHT22;18401;49.344;6.240;2023-12-29T07:25:47;9.40;99.90
31837;DHT22;18401;49.344;6.240;2023-12-29T07:28:13;9.40;99.90
31837;DHT22;18401;49.344;6.240;2023-12-29T07:30:39;9.40;99.90
31837;DHT22;18401;49.344;6.240;2023-12-29T07:33:04;9.40;99.90
31837;DHT22;18401;49.344;6.240;2023-12-29T07:35:30;9.50;99.90
31837;DHT22;18401;49.344;6.240;2023-12-29T07:37:56;9.40;99.90
31837;DHT22;18401;49.344;6.240;2023-12-29T07:40:21;9.30;99.90
31837;DHT22;18401;49.344;6.240;2023-12-29T07:42:48;9.50;99.90
31837;DHT22;18401;49.344;6.240;2023-12-29T07:45:16;9.30;99.90
31837;DHT22;18401;49.344;6.240;2023-12-29T07:47:41;9.40;99.90
31837;DHT22;18401;49.344;6.240;2023-12-29T07:50:07;9.40;99.90
31837;DHT22;18401;49.344;6.240;2023-12-29T07:52:33;9.40;99.90
31837;DHT22;18401;49.344;6.240;2023-12-29T07:54:58;9.50;99.90
31837;DHT22;18401;49.344;6.240;2023-12-29T07:57:24;9.50;99.90
31837;DHT22;18401;49.344;6.240;2023-12-29T07:59:50;9.60;99.90
31837;DHT22;18401;49.344;6.240;2023-12-29T08:02:16;9.50;99.90
31837;DHT22;18401;49.344;6.240;2023-12-29T08:04:42;9.50;99.90
31837;DHT22;18401;49.344;6.240;2023-12-29T08:07:07;9.50;99.90
31837;DHT22;18401;49.344;6.240;2023-12-29T08:09:33;9.60;99.90
31837;DHT22;18401;49.344;6.240;2023-12-29T08:11:59;9.50;99.90
31837;DHT22;18401;49.344;6.240;2023-12-29T08:14:26;9.50;99.90
31837;DHT22;18401;49.344;6.240;2023-12-29T08:16:51;9.70;97.10
31837;DHT22;18401;49.344;6.240;2023-12-29T08:19:17;9.70;99.90
31837;DHT22;18401;49.344;6.240;2023-12-29T08:21:43;9.60;99.90
31837;DHT22;18401;49.344;6.240;2023-12-29T08:24:08;9.70;93.80
31837;DHT22;18401;49.344;6.240;2023-12-29T08:26:34;9.70;99.90
31837;DHT22;18401;49.344;6.240;2023-12-29T08:28:59;9.60;99.90
31837;DHT22;18401;49.344;6.240;2023-12-29T08:31:25;9.60;99.90
31837;DHT22;18401;49.344;6.240;2023-12-29T08:33:52;9.50;99.90
31837;DHT22;18401;49.344;6.240;2023-12-29T08:36:19;9.50;99.90
31837;DHT22;18401;49.344;6.240;2023-12-29T08:38:45;9.60;85.00
31837;DHT22;18401;49.344;6.240;2023-12-29T08:41:13;9.70;93.00
31837;DHT22;18401;49.344;6.240;2023-12-29T08:43:39;9.80;62.80
31837;DHT22;18401;49.344;6.240;2023-12-29T08:46:04;9.60;91.60
31837;DHT22;18401;49.344;6.240;2023-12-29T08:48:30;9.60;99.90
31837;DHT22;18401;49.344;6.240;2023-12-29T08:50:56;9.60;99.90
31837;DHT22;18401;49.344;6.240;2023-12-29T08:53:21;9.60;99.90
31837;DHT22;18401;49.344;6.240;2023-12-29T08:55:47;9.50;99.90
31837;DHT22;18401;49.344;6.240;2023-12-29T08:58:13;9.50;99.90
31837;DHT22;18401;49.344;6.240;2023-12-29T09:00:38;9.60;98.30
31837;DHT22;18401;49.344;6.240;2023-12-29T09:03:04;9.60;66.90
31837;DHT22;18401;49.344;6.240;2023-12-29T09:05:30;9.60;56.90
31837;DHT22;18401;49.344;6.240;2023-12-29T09:07:56;9.70;46.00
31837;DHT22;18401;49.344;6.240;2023-12-29T09:10:21;9.70;59.70
31837;DHT22;18401;49.344;6.240;2023-12-29T09:12:48;9.50;91.00
31837;DHT22;18401;49.344;6.240;2023-12-29T09:15:14;9.50;90.60
31837;DHT22;18401;49.344;6.240;2023-12-29T09:17:40;9.60;21.90
31837;DHT22;18401;49.344;6.240;2023-12-29T09:20:06;9.60;43.80
31837;DHT22;18401;49.344;6.240;2023-12-29T09:22:33;9.70;4.70
31837;DHT22;18401;49.344;6.240;2023-12-29T09:24:59;9.50;74.70
31837;DHT22;18401;49.344;6.240;2023-12-29T09:27:24;9.60;81.00
31837;DHT22;18401;49.344;6.240;2023-12-29T09:29:50;9.50;95.60
31837;DHT22;18401;49.344;6.240;2023-12-29T09:32:16;9.40;99.90
31837;DHT22;18401;49.344;6.240;2023-12-29T09:34:42;9.50;99.90
31837;DHT22;18401;49.344;6.240;2023-12-29T09:37:08;9.40;99.90
31837;DHT22;18401;49.344;6.240;2023-12-29T09:39:34;9.60;99.90
31837;DHT22;18401;49.344;6.240;2023-12-29T09:42:00;9.60;93.60
31837;DHT22;18401;49.344;6.240;2023-12-29T09:44:27;9.60;99.90
31837;DHT22;18401;49.344;6.240;2023-12-29T09:47:01;9.60;94.30
31837;DHT22;18401;49.344;6.240;2023-12-29T09:49:35;9.60;99.90
31837;DHT22;18401;49.344;6.240;2023-12-29T09:52:02;9.50;99.90
31837;DHT22;18401;49.344;6.240;2023-12-29T09:54:29;9.50;98.70
31837;DHT22;18401;49.344;6.240;2023-12-29T09:56:55;9.60;91.80
31837;DHT22;18401;49.344;6.240;2023-12-29T09:59:21;9.50;99.90
31837;DHT22;18401;49.344;6.240;2023-12-29T10:01:48;9.50;99.90
31837;DHT22;18401;49.344;6.240;2023-12-29T10:04:13;9.60;99.90
31837;DHT22;18401;49.344;6.240;2023-12-29T10:06:42;9.60;99.00
31837;DHT22;18401;49.344;6.240;2023-12-29T10:09:12;9.60;82.20
31837;DHT22;18401;49.344;6.240;2023-12-29T10:11:40;9.60;98.60
31837;DHT22;18401;49.344;6.240;2023-12-29T10:14:41;9.50;99.90
31837;DHT22;18401;49.344;6.240;2023-12-29T10:18:01;9.60;99.90
31837;DHT22;18401;49.344;6.240;2023-12-29T10:25:42;9.20;99.90
31837;DHT22;18401;49.344;6.240;2023-12-29T10:28:09;9.30;99.90
31837;DHT22;18401;49.344;6.240;2023-12-29T10:30:35;9.20;99.90
31837;DHT22;18401;49.344;6.240;2023-12-29T10:33:04;9.20;99.90
31837;DHT22;18401;49.344;6.240;2023-12-29T10:35:30;9.30;99.90
31837;DHT22;18401;49.344;6.240;2023-12-29T10:38:11;9.30;99.90
31837;DHT22;18401;49.344;6.240;2023-12-29T10:40:37;9.20;1.00
31837;DHT22;18401;49.344;6.240;2023-12-29T10:43:03;9.20;1.00
31837;DHT22;18401;49.344;6.240;2023-12-29T10:45:32;9.20;99.90
31837;DHT22;18401;49.344;6.240;2023-12-29T10:48:00;9.30;99.90
31837;DHT22;18401;49.344;6.240;2023-12-29T10:50:26;9.30;99.90
31837;DHT22;18401;49.344;6.240;2023-12-29T10:53:10;9.30;99.90
31837;DHT22;18401;49.344;6.240;2023-12-29T10:55:36;9.40;99.90
31837;DHT22;18401;49.344;6.240;2023-12-29T10:58:02;9.40;99.90
31837;DHT22;18401;49.344;6.240;2023-12-29T11:00:31;9.30;99.90
31837;DHT22;18401;49.344;6.240;2023-12-29T11:02:58;9.30;1.00
31837;DHT22;18401;49.344;6.240;2023-12-29T11:05:27;9.30;99.90
31837;DHT22;18401;49.344;6.240;2023-12-29T11:07:54;9.40;99.90
31837;DHT22;18401;49.344;6.240;2023-12-29T11:10:20;9.30;99.90
31837;DHT22;18401;49.344;6.240;2023-12-29T11:12:48;9.30;1.00
31837;DHT22;18401;49.344;6.240;2023-12-29T11:15:14;9.30;61.70
31837;DHT22;18401;49.344;6.240;2023-12-29T11:17:42;9.30;1.00
31837;DHT22;18401;49.344;6.240;2023-12-29T11:20:16;9.20;95.10
31837;DHT22;18401;49.344;6.240;2023-12-29T11:22:42;9.10;99.90
31837;DHT22;18401;49.344;6.240;2023-12-29T11:25:09;9.10;99.90
31837;DHT22;18401;49.344;6.240;2023-12-29T11:27:35;9.10;99.90
31837;DHT22;18401;49.344;6.240;2023-12-29T11:30:02;9.20;99.90
31837;DHT22;18401;49.344;6.240;2023-12-29T11:32:52;9.20;93.60
31837;DHT22;18401;49.344;6.240;2023-12-29T11:35:46;9.30;79.50
31837;DHT22;18401;49.344;6.240;2023-12-29T11:38:41;9.30;54.50
31837;DHT22;18401;49.344;6.240;2023-12-29T11:41:20;9.40;99.90
31837;DHT22;18401;49.344;6.240;2023-12-29T11:43:59;9.50;99.90
31837;DHT22;18401;49.344;6.240;2023-12-29T11:46:44;9.50;99.90
31837;DHT22;18401;49.344;6.240;2023-12-29T11:49:10;9.50;99.90
31837;DHT22;18401;49.344;6.240;2023-12-29T11:51:40;9.50;99.90
31837;DHT22;18401;49.344;6.240;2023-12-29T11:54:06;9.50;99.90
31837;DHT22;18401;49.344;6.240;2023-12-29T11:56:38;9.40;99.90
31837;DHT22;18401;49.344;6.240;2023-12-29T11:59:15;9.40;1.00
31837;DHT22;18401;49.344;6.240;2023-12-29T12:01:41;9.50;99.90
31837;DHT22;18401;49.344;6.240;2023-12-29T12:07:05;9.70;99.90
31837;DHT22;18401;49.344;6.240;2023-12-29T12:09:32;9.80;99.90
31837;DHT22;18401;49.344;6.240;2023-12-29T12:12:01;10.00;99.90
31837;DHT22;18401;49.344;6.240;2023-12-29T12:14:47;10.20;99.90
31837;DHT22;18401;49.344;6.240;2023-12-29T12:17:29;10.20;99.90
31837;DHT22;18401;49.344;6.240;2023-12-29T12:20:08;10.20;99.90
31837;DHT22;18401;49.344;6.240;2023-12-29T12:22:35;10.30;99.90
31837;DHT22;18401;49.344;6.240;2023-12-29T12:25:01;10.40;80.60
31837;DHT22;18401;49.344;6.240;2023-12-29T12:27:27;10.30;99.90
31837;DHT22;18401;49.344;6.240;2023-12-29T12:29:57;10.30;99.90
31837;DHT22;18401;49.344;6.240;2023-12-29T12:32:26;10.30;99.90
31837;DHT22;18401;49.344;6.240;2023-12-29T12:34:52;10.40;97.70
31837;DHT22;18401;49.344;6.240;2023-12-29T12:37:22;10.30;78.90
31837;DHT22;18401;49.344;6.240;2023-12-29T12:39:48;10.20;99.90
31837;DHT22;18401;49.344;6.240;2023-12-29T12:42:15;10.10;88.30
31837;DHT22;18401;49.344;6.240;2023-12-29T12:44:42;10.10;99.90
31837;DHT22;18401;49.344;6.240;2023-12-29T12:47:17;10.00;99.90
31837;DHT22;18401;49.344;6.240;2023-12-29T12:49:44;10.00;99.90
31837;DHT22;18401;49.344;6.240;2023-12-29T12:52:10;10.00;90.30
31837;DHT22;18401;49.344;6.240;2023-12-29T12:54:36;10.00;99.90
31837;DHT22;18401;49.344;6.240;2023-12-29T12:57:02;9.90;99.90
31837;DHT22;18401;49.344;6.240;2023-12-29T12:59:28;9.90;99.90
31837;DHT22;18401;49.344;6.240;2023-12-29T13:01:54;9.90;99.90
31837;DHT22;18401;49.344;6.240;2023-12-29T13:04:20;9.90;99.90
31837;DHT22;18401;49.344;6.240;2023-12-29T13:06:46;9.90;99.90
31837;DHT22;18401;49.344;6.240;2023-12-29T13:09:12;9.90;99.90
31837;DHT22;18401;49.344;6.240;2023-12-29T13:11:39;9.90;99.90
31837;DHT22;18401;49.344;6.240;2023-12-29T13:14:06;10.00;95.10
31837;DHT22;18401;49.344;6.240;2023-12-29T13:16:36;9.90;99.90
31837;DHT22;18401;49.344;6.240;2023-12-29T13:19:16;9.90;99.90
31837;DHT22;18401;49.344;6.240;2023-12-29T13:21:47;9.90;69.30
31837;DHT22;18401;49.344;6.240;2023-12-29T13:24:13;9.90;95.50
31837;DHT22;18401;49.344;6.240;2023-12-29T13:26:41;9.90;68.60
31837;DHT22;18401;49.344;6.240;2023-12-29T13:29:08;9.90;78.10
31837;DHT22;18401;49.344;6.240;2023-12-29T13:31:34;9.90;79.80
31837;DHT22;18401;49.344;6.240;2023-12-29T13:34:05;9.90;75.80
31837;DHT22;18401;49.344;6.240;2023-12-29T13:36:42;9.90;65.20
31837;DHT22;18401;49.344;6.240;2023-12-29T13:39:17;9.90;40.50
31837;DHT22;18401;49.344;6.240;2023-12-29T13:41:47;9.90;74.60
31837;DHT22;18401;49.344;6.240;2023-12-29T13:44:13;9.90;43.70
31837;DHT22;18401;49.344;6.240;2023-12-29T13:46:39;9.90;37.90
31837;DHT22;18401;49.344;6.240;2023-12-29T13:49:06;9.90;24.90
31837;DHT22;18401;49.344;6.240;2023-12-29T13:51:32;9.90;8.10
31837;DHT22;18401;49.344;6.240;2023-12-29T13:54:01;9.90;31.10
31837;DHT22;18401;49.344;6.240;2023-12-29T13:56:28;9.80;70.90
31837;DHT22;18401;49.344;6.240;2023-12-29T13:58:54;9.90;1.00
31837;DHT22;18401;49.344;6.240;2023-12-29T14:01:20;9.90;1.00
31837;DHT22;18401;49.344;6.240;2023-12-29T14:03:59;9.90;1.00
31837;DHT22;18401;49.344;6.240;2023-12-29T14:06:51;10.00;1.00
31837;DHT22;18401;49.344;6.240;2023-12-29T14:09:18;9.90;1.00
31837;DHT22;18401;49.344;6.240;2023-12-29T14:11:48;10.00;1.00
31837;DHT22;18401;49.344;6.240;2023-12-29T14:14:14;9.90;1.00
31837;DHT22;18401;49.344;6.240;2023-12-29T14:16:40;9.90;1.00
31837;DHT22;18401;49.344;6.240;2023-12-29T14:19:06;9.80;14.20
31837;DHT22;18401;49.344;6.240;2023-12-29T14:21:32;9.80;13.00
31837;DHT22;18401;49.344;6.240;2023-12-29T14:24:11;9.90;17.20
31837;DHT22;18401;49.344;6.240;2023-12-29T14:29:18;9.80;1.00
31837;DHT22;18401;49.344;6.240;2023-12-29T14:31:45;9.80;1.00
31837;DHT22;18401;49.344;6.240;2023-12-29T14:34:12;9.70;24.00
31837;DHT22;18401;49.344;6.240;2023-12-29T14:36:40;9.80;36.20
31837;DHT22;18401;49.344;6.240;2023-12-29T14:39:07;9.70;67.50
31837;DHT22;18401;49.344;6.240;2023-12-29T14:41:33;9.70;80.00
31837;DHT22;18401;49.344;6.240;2023-12-29T14:43:59;9.70;90.10
31837;DHT22;18401;49.344;6.240;2023-12-29T14:46:25;9.70;91.40
31837;DHT22;18401;49.344;6.240;2023-12-29T14:48:51;9.60;70.90
31837;DHT22;18401;49.344;6.240;2023-12-29T14:51:18;9.70;37.20
31837;DHT22;18401;49.344;6.240;2023-12-29T14:53:48;9.70;67.90
31837;DHT22;18401;49.344;6.240;2023-12-29T14:56:14;9.70;14.50
31837;DHT22;18401;49.344;6.240;2023-12-29T14:58:40;9.80;18.80
31837;DHT22;18401;49.344;6.240;2023-12-29T15:01:06;9.80;15.60
31837;DHT22;18401;49.344;6.240;2023-12-29T15:03:32;9.70;11.10
31837;DHT22;18401;49.344;6.240;2023-12-29T15:05:58;9.80;29.90
31837;DHT22;18401;49.344;6.240;2023-12-29T15:08:24;9.80;1.00
31837;DHT22;18401;49.344;6.240;2023-12-29T15:10:50;10.00;1.00
31837;DHT22;18401;49.344;6.240;2023-12-29T15:13:16;9.90;1.00
31837;DHT22;18401;49.344;6.240;2023-12-29T15:15:42;9.90;1.00
31837;DHT22;18401;49.344;6.240;2023-12-29T15:18:08;9.80;38.90
31837;DHT22;18401;49.344;6.240;2023-12-29T15:20:34;9.70;59.50
31837;DHT22;18401;49.344;6.240;2023-12-29T15:22:59;9.60;66.10
31837;DHT22;18401;49.344;6.240;2023-12-29T15:25:26;9.70;27.00
31837;DHT22;18401;49.344;6.240;2023-12-29T15:27:53;9.70;6.90
31837;DHT22;18401;49.344;6.240;2023-12-29T15:30:19;9.70;1.00
31837;DHT22;18401;49.344;6.240;2023-12-29T15:32:45;9.70;21.40
31837;DHT22;18401;49.344;6.240;2023-12-29T15:35:10;9.70;13.10
31837;DHT22;18401;49.344;6.240;2023-12-29T15:37:36;9.70;14.80
31837;DHT22;18401;49.344;6.240;2023-12-29T15:40:02;9.60;36.80
31837;DHT22;18401;49.344;6.240;2023-12-29T15:42:32;9.80;1.00
31837;DHT22;18401;49.344;6.240;2023-12-29T15:44:58;9.80;1.00
31837;DHT22;18401;49.344;6.240;2023-12-29T15:47:24;9.70;1.00
31837;DHT22;18401;49.344;6.240;2023-12-29T15:49:49;9.70;8.20
31837;DHT22;18401;49.344;6.240;2023-12-29T15:52:15;9.70;1.00
31837;DHT22;18401;49.344;6.240;2023-12-29T15:54:41;9.70;2.70
31837;DHT22;18401;49.344;6.240;2023-12-29T15:57:06;9.70;18.60
31837;DHT22;18401;49.344;6.240;2023-12-29T15:59:34;9.60;23.30
31837;DHT22;18401;49.344;6.240;2023-12-29T16:01:59;9.70;11.50